createdAt,value
2023-04-13T12:27:19.788Z,12.20
2023-04-13T12:29:51.615Z,12.04
2023-04-13T12:32:18.734Z,12.12
2023-04-13T12:34:46.404Z,12.05
2023-04-13T12:37:13.452Z,11.97
2023-04-13T12:39:41.734Z,11.91
2023-04-13T12:42:09.001Z,11.83
2023-04-13T12:44:39.417Z,11.79
2023-04-13T12:54:45.207Z,12.12
2023-04-13T12:57:17.617Z,12.60
2023-04-13T12:59:46.167Z,12.79
2023-04-13T13:02:15.388Z,12.82
2023-04-13T13:04:44.532Z,12.74
2023-04-13T13:07:13.466Z,12.36
2023-04-13T13:09:43.161Z,12.50
2023-04-13T13:12:12.497Z,12.52
2023-04-13T13:14:41.558Z,12.49
2023-04-13T13:17:10.198Z,12.35
2023-04-13T13:19:38.821Z,12.27
2023-04-13T13:22:07.210Z,12.22
2023-04-13T13:24:35.738Z,12.16
2023-04-13T13:29:37.462Z,12.03
2023-04-13T13:32:06.937Z,11.93
2023-04-13T13:34:36.208Z,11.79
2023-04-13T13:37:04.953Z,11.84
2023-04-13T13:39:35.794Z,11.82
2023-04-13T13:42:05.005Z,11.85
2023-04-13T13:44:35.002Z,11.90
2023-04-13T13:47:05.020Z,11.95
2023-04-13T13:49:33.734Z,12.34
2023-04-13T13:52:09.868Z,12.69
2023-04-13T13:54:46.229Z,12.86
2023-04-13T13:57:14.890Z,12.82
2023-04-13T13:59:45.259Z,12.58
2023-04-13T14:02:15.297Z,12.47
2023-04-13T14:04:44.255Z,12.34
2023-04-13T14:07:15.828Z,12.25
2023-04-13T14:09:45.517Z,12.15
2023-04-13T14:12:13.896Z,12.07
2023-04-13T14:14:42.598Z,11.92
2023-04-13T14:17:13.001Z,11.82
2023-04-13T14:19:42.152Z,11.88
2023-04-13T14:22:10.896Z,11.88
2023-04-13T14:24:46.742Z,11.96
2023-04-13T14:27:15.519Z,12.53
2023-04-13T14:29:46.988Z,13.04
2023-04-13T14:32:15.879Z,13.10
2023-04-13T14:34:48.038Z,13.07
2023-04-13T14:37:17.270Z,12.85
2023-04-13T14:39:49.406Z,12.74
2023-04-13T14:42:17.884Z,12.45
2023-04-13T14:44:46.236Z,12.38
2023-04-13T14:47:16.177Z,12.29
2023-04-13T14:49:45.589Z,12.18
2023-04-13T14:52:15.201Z,12.01
2023-04-13T14:54:46.846Z,11.90
2023-04-13T14:57:17.372Z,11.82
2023-04-13T14:59:46.223Z,11.80
2023-04-13T15:02:15.276Z,12.25
2023-04-13T15:04:44.272Z,12.74
2023-04-13T15:07:12.914Z,12.89
2023-04-13T15:09:42.042Z,12.85
2023-04-13T15:12:13.132Z,12.72
2023-04-13T15:14:46.870Z,12.53
2023-04-13T15:17:15.574Z,12.33
2023-04-13T15:19:48.039Z,12.18
2023-04-13T15:22:16.517Z,12.04
2023-04-13T15:24:45.138Z,11.97
2023-04-13T15:27:14.460Z,11.93
2023-04-13T15:29:44.114Z,11.89
2023-04-13T15:32:13.049Z,12.46
2023-04-13T15:34:41.692Z,13.06
2023-04-13T15:37:10.785Z,13.17
2023-04-13T15:39:39.368Z,13.10
2023-04-13T15:42:09.074Z,12.89
2023-04-13T15:44:38.231Z,12.65
2023-04-13T15:47:07.371Z,12.44
2023-04-13T15:49:36.164Z,12.27
2023-04-13T15:52:04.454Z,12.13
2023-04-13T15:54:33.534Z,11.97
2023-04-13T15:57:02.729Z,11.87
2023-04-13T15:59:34.982Z,12.32
2023-04-13T16:02:05.137Z,12.84
2023-04-13T16:04:35.729Z,12.84
2023-04-13T16:07:13.680Z,12.72
2023-04-13T16:09:56.570Z,12.51
2023-04-13T16:12:32.092Z,12.33
2023-04-13T16:15:04.588Z,12.14
2023-04-13T16:17:40.474Z,11.95
2023-04-13T16:20:19.576Z,11.74
2023-04-13T16:22:50.822Z,11.60
2023-04-13T16:25:21.056Z,12.14
2023-04-13T16:27:53.016Z,12.68
2023-04-13T16:30:23.841Z,12.72
2023-04-13T16:32:52.665Z,12.53
2023-04-13T16:35:21.638Z,12.31
2023-04-13T16:37:50.097Z,12.02
2023-04-13T16:40:19.527Z,11.79
2023-04-13T16:42:48.111Z,11.59
2023-04-13T16:45:16.484Z,11.46
2023-04-13T16:47:45.101Z,11.81
2023-04-13T16:50:16.812Z,12.37
2023-04-13T16:52:45.401Z,12.44
2023-04-13T16:55:18.069Z,12.26
2023-04-13T16:57:46.570Z,12.00
2023-04-13T17:00:18.329Z,11.82
2023-04-13T17:02:47.909Z,11.60
2023-04-13T17:05:17.250Z,11.41
2023-04-13T17:07:52.352Z,11.25
2023-04-13T17:10:23.276Z,11.74
2023-04-13T17:12:51.596Z,12.29
2023-04-13T17:15:20.664Z,12.35
2023-04-13T17:17:55.319Z,12.17
2023-04-13T17:20:24.458Z,11.95
2023-04-13T17:22:53.585Z,11.73
2023-04-13T17:25:24.319Z,11.53
2023-04-13T17:27:53.656Z,11.34
2023-04-13T17:30:22.934Z,11.16
2023-04-13T17:32:57.800Z,10.98
2023-04-13T17:35:26.432Z,11.43
2023-04-13T17:37:54.959Z,11.90
2023-04-13T17:40:31.722Z,11.92
2023-04-13T17:43:00.167Z,11.74
2023-04-13T17:45:28.721Z,11.53
2023-04-13T17:48:02.897Z,11.28
2023-04-13T17:50:33.050Z,11.03
2023-04-13T17:53:04.547Z,10.84
2023-04-13T17:55:36.906Z,10.70
2023-04-13T17:58:06.106Z,10.65
2023-04-13T18:00:34.686Z,11.19
2023-04-13T18:03:05.798Z,11.76
2023-04-13T18:05:35.649Z,11.88
2023-04-13T18:08:04.342Z,11.76
2023-04-13T18:10:33.767Z,11.57
2023-04-13T18:13:09.191Z,11.40
2023-04-13T18:15:39.613Z,11.20
2023-04-13T18:18:08.234Z,11.03
2023-04-13T18:20:42.515Z,10.90
2023-04-13T18:23:12.108Z,10.84
2023-04-13T18:25:41.207Z,11.40
2023-04-13T18:28:09.509Z,12.03
2023-04-13T18:30:39.195Z,12.15
2023-04-13T18:33:09.423Z,12.07
2023-04-13T18:35:45.766Z,11.90
2023-04-13T18:38:14.773Z,11.69
2023-04-13T18:40:43.570Z,11.50
2023-04-13T18:43:12.657Z,11.27
2023-04-13T18:45:42.376Z,11.04
2023-04-13T18:48:11.630Z,10.91
2023-04-13T18:50:40.774Z,11.34
2023-04-13T18:53:12.330Z,11.90
2023-04-13T18:55:41.204Z,11.97
2023-04-13T18:58:10.200Z,11.83
2023-04-13T19:00:38.988Z,11.58
2023-04-13T19:03:08.655Z,11.29
2023-04-13T19:05:37.730Z,11.03
2023-04-13T19:08:07.712Z,10.83
2023-04-13T19:10:36.621Z,10.65
2023-04-13T19:13:05.506Z,10.55
2023-04-13T19:15:36.540Z,11.07
2023-04-13T19:18:11.518Z,11.62
2023-04-13T19:20:40.147Z,11.67
2023-04-13T19:23:08.793Z,11.49
2023-04-13T19:25:41.510Z,11.26
2023-04-13T19:28:10.504Z,11.06
2023-04-13T19:30:39.056Z,10.83
2023-04-13T19:33:08.336Z,10.59
2023-04-13T19:35:37.217Z,10.43
2023-04-13T19:38:05.969Z,10.90
2023-04-13T19:40:40.585Z,11.48
2023-04-13T19:43:09.068Z,11.58
2023-04-13T19:45:39.566Z,11.45
2023-04-13T19:48:08.537Z,11.20
2023-04-13T19:50:38.407Z,10.99
2023-04-13T19:53:06.805Z,10.74
2023-04-13T19:55:35.676Z,10.54
2023-04-13T19:58:04.772Z,10.99
2023-04-13T20:00:34.383Z,11.51
2023-04-13T20:03:22.699Z,11.62
2023-04-13T20:05:53.203Z,11.51
2023-04-13T20:08:21.629Z,11.32
2023-04-13T20:10:50.566Z,11.13
2023-04-13T20:13:19.307Z,10.94
2023-04-13T20:15:48.320Z,10.80
2023-04-13T20:18:17.523Z,11.29
2023-04-13T20:20:48.236Z,11.86
2023-04-13T20:23:16.614Z,11.93
2023-04-13T20:25:48.192Z,11.69
2023-04-13T20:28:17.985Z,11.35
2023-04-13T20:30:46.356Z,11.17
2023-04-13T20:33:16.717Z,10.98
2023-04-13T20:35:45.772Z,10.80
2023-04-13T20:38:14.332Z,11.25
2023-04-13T20:40:46.031Z,11.74
2023-04-13T20:43:20.774Z,11.80
2023-04-13T20:45:49.117Z,11.64
2023-04-13T20:50:50.500Z,11.10
2023-04-13T20:53:20.497Z,10.88
2023-04-13T20:55:49.094Z,10.74
2023-04-13T20:58:17.677Z,11.23
2023-04-13T21:00:46.736Z,11.79
2023-04-13T21:03:15.944Z,11.84
2023-04-13T21:05:45.580Z,11.65
2023-04-13T21:08:14.674Z,11.40
2023-04-13T21:10:50.115Z,11.17
2023-04-13T21:13:18.612Z,10.90
2023-04-13T21:15:47.181Z,10.70
2023-04-13T21:18:18.222Z,11.12
2023-04-13T21:20:49.515Z,11.62
2023-04-13T21:23:18.158Z,11.70
2023-04-13T21:25:50.312Z,11.53
2023-04-13T21:28:18.916Z,11.30
2023-04-13T21:30:47.614Z,11.04
2023-04-13T21:33:18.112Z,10.72
2023-04-13T21:35:46.813Z,10.51
2023-04-13T21:38:15.077Z,11.01
2023-04-13T21:40:43.666Z,11.56
2023-04-13T21:43:12.449Z,11.54
2023-04-13T21:45:41.053Z,11.23
2023-04-13T21:48:09.911Z,10.86
2023-04-13T21:50:38.394Z,10.43
2023-04-13T21:53:06.879Z,10.26
2023-04-13T21:55:35.795Z,10.58
2023-04-13T21:58:04.351Z,10.92
2023-04-13T22:00:34.064Z,10.86
2023-04-13T22:03:03.782Z,10.68
2023-04-13T22:05:32.662Z,10.55
2023-04-13T22:08:03.312Z,10.37
2023-04-13T22:10:32.306Z,10.49
2023-04-13T22:13:00.881Z,10.75
2023-04-13T22:15:32.445Z,10.71
2023-04-13T22:18:01.088Z,10.51
2023-04-13T22:20:30.304Z,10.23
2023-04-13T22:22:58.793Z,10.03
2023-04-13T22:25:28.213Z,10.43
2023-04-13T22:27:57.900Z,10.76
2023-04-13T22:30:27.477Z,10.71
2023-04-13T22:32:59.532Z,10.49
2023-04-13T22:35:28.362Z,10.33
2023-04-13T22:37:59.919Z,10.20
2023-04-13T22:40:28.426Z,9.97
2023-04-13T22:42:57.383Z,10.57
2023-04-13T22:45:26.546Z,10.99
2023-04-13T22:47:55.248Z,11.00
2023-04-13T22:50:23.951Z,10.81
2023-04-13T22:52:56.016Z,10.61
2023-04-13T22:55:25.960Z,10.39
2023-04-13T22:57:54.413Z,10.15
2023-04-13T23:00:23.001Z,10.60
2023-04-13T23:02:56.235Z,11.03
2023-04-13T23:05:24.934Z,10.79
2023-04-13T23:07:53.453Z,10.52
2023-04-13T23:10:21.955Z,10.33
2023-04-13T23:12:50.643Z,10.21
2023-04-13T23:15:19.158Z,10.07
2023-04-13T23:17:47.859Z,10.40
2023-04-13T23:20:16.690Z,10.83
2023-04-13T23:22:45.808Z,10.88
2023-04-13T23:25:14.569Z,10.74
2023-04-13T23:35:20.885Z,10.12
2023-04-13T23:37:49.415Z,10.72
2023-04-13T23:40:17.851Z,11.17
2023-04-13T23:42:46.630Z,11.24
2023-04-13T23:45:18.705Z,11.07
2023-04-13T23:47:48.096Z,10.72
2023-04-13T23:50:18.213Z,10.40
2023-04-13T23:52:46.848Z,10.21
2023-04-13T23:55:15.699Z,10.61
2023-04-13T23:57:44.489Z,11.06
